createdAt,value
2023-04-15T00:01:02.668Z,9.60
2023-04-15T00:03:30.543Z,9.50
2023-04-15T00:05:58.530Z,9.50
2023-04-15T00:08:25.604Z,9.40
2023-04-15T00:13:20.328Z,9.50
2023-04-15T00:15:48.063Z,9.30
2023-04-15T00:18:14.935Z,9.40
2023-04-15T00:20:41.759Z,9.30
2023-04-15T00:23:08.689Z,9.20
2023-04-15T00:25:35.537Z,9.20
2023-04-15T00:30:29.875Z,9.20
2023-04-15T00:32:56.885Z,9.30
2023-04-15T00:40:21.245Z,9.30
2023-04-15T00:42:48.426Z,9.30
2023-04-15T00:45:15.785Z,9.30
2023-04-15T00:47:44.307Z,9.20
2023-04-15T00:50:12.731Z,9.20
2023-04-15T00:52:40.878Z,9.20
2023-04-15T00:55:08.798Z,9.20
2023-04-15T00:57:36.446Z,9.20
2023-04-15T01:00:05.764Z,9.20
2023-04-15T01:02:33.861Z,9.20
2023-04-15T01:07:28.246Z,9.20
2023-04-15T01:09:55.756Z,9.20
2023-04-15T01:14:50.181Z,9.20
2023-04-15T01:17:18.154Z,9.20
2023-04-15T01:22:12.393Z,9.10
2023-04-15T01:27:06.880Z,9.00
2023-04-15T01:29:35.633Z,9.00
2023-04-15T01:32:02.457Z,9.00
2023-04-15T01:34:29.496Z,9.00
2023-04-15T01:36:56.297Z,9.10
2023-04-15T01:39:23.573Z,9.10
2023-04-15T01:44:17.685Z,9.10
2023-04-15T01:46:44.617Z,9.10
2023-04-15T01:54:05.872Z,9.10
2023-04-15T01:56:33.481Z,9.10
2023-04-15T01:59:00.571Z,9.10
2023-04-15T02:03:55.013Z,9.10
2023-04-15T02:11:16.483Z,8.90
2023-04-15T02:13:43.354Z,9.00
2023-04-15T02:16:18.640Z,9.00
2023-04-15T02:18:47.081Z,9.00
2023-04-15T02:21:14.784Z,8.90
2023-04-15T02:23:42.002Z,8.90
2023-04-15T02:26:08.818Z,9.00
2023-04-15T02:31:06.749Z,9.00
2023-04-15T02:33:33.914Z,9.00
2023-04-15T02:36:01.109Z,9.00
2023-04-15T02:40:55.545Z,9.00
2023-04-15T02:45:50.031Z,9.10
2023-04-15T02:48:19.439Z,9.10
2023-04-15T02:50:47.179Z,9.00
2023-04-15T02:58:10.118Z,9.00
2023-04-15T03:03:06.179Z,9.00
2023-04-15T03:08:01.462Z,9.00
2023-04-15T03:10:28.565Z,9.00
2023-04-15T03:17:50.144Z,9.10
2023-04-15T03:20:17.080Z,9.10
2023-04-15T03:22:44.696Z,9.10
2023-04-15T03:27:38.928Z,9.20
2023-04-15T03:30:07.096Z,9.10
2023-04-15T03:32:34.027Z,9.10
2023-04-15T03:35:01.019Z,9.00
2023-04-15T03:37:27.897Z,9.00
2023-04-15T03:44:49.857Z,9.10
2023-04-15T03:54:38.588Z,9.10
2023-04-15T03:57:05.839Z,9.10
2023-04-15T03:59:32.686Z,9.10
2023-04-15T04:04:27.195Z,9.10
2023-04-15T04:06:54.079Z,9.10
2023-04-15T04:09:20.903Z,9.10
2023-04-15T04:11:47.834Z,9.10
2023-04-15T04:14:14.697Z,9.10
2023-04-15T04:19:09.024Z,9.10
2023-04-15T04:24:03.606Z,9.20
2023-04-15T04:26:30.496Z,9.10
2023-04-15T04:43:41.223Z,9.20
2023-04-15T04:46:08.074Z,9.20
2023-04-15T04:48:34.982Z,9.20
2023-04-15T05:00:51.972Z,9.20
2023-04-15T05:03:19.229Z,9.20
2023-04-15T05:05:46.574Z,9.30
2023-04-15T05:10:40.691Z,9.20
2023-04-15T05:15:37.027Z,9.20
2023-04-15T05:18:03.977Z,9.10
2023-04-15T05:20:31.095Z,9.20
2023-04-15T05:22:57.919Z,9.20
2023-04-15T05:27:52.097Z,9.10
2023-04-15T05:30:18.906Z,9.10
2023-04-15T05:35:13.015Z,9.10
2023-04-15T05:37:39.895Z,9.20
2023-04-15T05:40:07.178Z,9.10
2023-04-15T05:42:35.059Z,9.10
2023-04-15T05:45:01.957Z,9.10
2023-04-15T05:49:56.445Z,9.00
2023-04-15T05:52:23.266Z,8.90
2023-04-15T05:54:50.083Z,9.00
2023-04-15T05:57:16.927Z,9.00
2023-04-15T05:59:44.828Z,9.10
2023-04-15T06:02:12.130Z,9.10
2023-04-15T06:04:40.216Z,9.00
2023-04-15T06:09:36.638Z,9.10
2023-04-15T06:12:04.155Z,9.10
2023-04-15T06:14:31.111Z,9.10
2023-04-15T06:16:57.995Z,9.00
2023-04-15T06:19:25.009Z,9.00
2023-04-15T06:21:52.001Z,9.10
2023-04-15T06:26:46.353Z,9.00
2023-04-15T06:31:40.572Z,9.10
2023-04-15T06:34:07.850Z,9.20
2023-04-15T06:36:34.672Z,9.20
2023-04-15T06:39:02.231Z,9.20
2023-04-15T06:41:29.553Z,9.10
2023-04-15T06:43:56.454Z,9.10
2023-04-15T06:48:51.224Z,9.30
2023-04-15T06:51:18.137Z,9.30
2023-04-15T06:56:12.257Z,9.30
2023-04-15T06:58:39.074Z,9.30
2023-04-15T07:01:06.113Z,9.30
2023-04-15T07:08:28.531Z,9.30
2023-04-15T07:15:50.506Z,9.40
2023-04-15T07:18:17.415Z,9.40
2023-04-15T07:20:44.265Z,9.50
2023-04-15T07:25:38.762Z,9.60
2023-04-15T07:28:05.735Z,9.60
2023-04-15T07:33:00.343Z,9.60
2023-04-15T07:35:27.628Z,9.70
2023-04-15T07:37:54.454Z,9.80
2023-04-15T07:42:49.651Z,10.00
2023-04-15T07:47:43.937Z,9.90
2023-04-15T07:50:14.768Z,10.00
2023-04-15T07:52:42.078Z,10.00
2023-04-15T07:57:37.472Z,10.00
2023-04-15T08:00:05.863Z,10.00
2023-04-15T08:02:33.131Z,10.00
2023-04-15T08:07:30.120Z,9.80
2023-04-15T08:12:24.364Z,9.90
2023-04-15T08:27:13.673Z,9.80
2023-04-15T08:29:40.791Z,9.80
2023-04-15T08:32:08.238Z,9.80
2023-04-15T08:34:35.058Z,9.80
2023-04-15T08:37:02.024Z,9.90
2023-04-15T08:42:03.732Z,9.90
2023-04-15T08:44:34.556Z,9.80
2023-04-15T08:47:02.961Z,9.90
2023-04-15T08:49:30.706Z,9.90
2023-04-15T08:51:59.660Z,10.00
2023-04-15T08:54:28.102Z,9.90
2023-04-15T08:56:55.364Z,9.90
2023-04-15T08:59:22.337Z,9.90
2023-04-15T09:01:53.589Z,10.00
2023-04-15T09:04:20.637Z,10.00
2023-04-15T09:06:47.636Z,9.90
2023-04-15T09:09:14.671Z,10.00
2023-04-15T09:11:42.408Z,10.10
2023-04-15T09:14:09.366Z,10.00
2023-04-15T09:16:57.599Z,10.00
2023-04-15T09:19:25.245Z,10.00
2023-04-15T09:21:57.309Z,10.10
2023-04-15T09:24:27.170Z,10.10
2023-04-15T09:26:56.040Z,10.00
2023-04-15T09:29:26.673Z,10.10
2023-04-15T09:34:21.685Z,10.30
2023-04-15T09:41:46.046Z,10.50
2023-04-15T09:44:26.686Z,10.50
2023-04-15T09:49:21.094Z,10.50
2023-04-15T09:52:01.684Z,10.50
2023-04-15T09:54:37.099Z,10.50
2023-04-15T09:57:10.861Z,10.60
2023-04-15T09:59:37.862Z,10.80
2023-04-15T10:02:08.145Z,11.00
2023-04-15T10:04:39.444Z,11.10
2023-04-15T10:07:07.462Z,11.40
2023-04-15T10:09:36.433Z,11.60
2023-04-15T10:12:04.894Z,11.70
2023-04-15T10:14:35.659Z,11.90
2023-04-15T10:17:04.268Z,11.90
2023-04-15T10:19:33.846Z,12.20
2023-04-15T10:22:00.825Z,12.70
2023-04-15T10:24:27.921Z,13.40
2023-04-15T10:26:55.603Z,14.10
2023-04-15T10:29:25.616Z,14.60
2023-04-15T10:31:54.847Z,14.80
2023-04-15T10:34:23.999Z,15.00
2023-04-15T10:36:51.980Z,14.70
2023-04-15T10:39:37.964Z,14.70
2023-04-15T10:42:12.382Z,15.00
2023-04-15T10:44:42.147Z,15.20
2023-04-15T10:47:20.196Z,15.60
2023-04-15T10:49:58.808Z,15.90
2023-04-15T10:52:28.594Z,16.10
2023-04-15T10:55:19.114Z,16.30
2023-04-15T10:57:46.148Z,15.90
2023-04-15T11:00:18.192Z,15.20
2023-04-15T11:02:56.670Z,15.10
2023-04-15T11:05:50.023Z,14.90
2023-04-15T11:08:17.399Z,14.80
2023-04-15T11:10:44.148Z,14.50
2023-04-15T11:13:11.069Z,14.50
2023-04-15T11:15:43.126Z,14.60
2023-04-15T11:20:42.761Z,15.60
2023-04-15T11:23:14.584Z,15.80
2023-04-15T11:25:43.305Z,15.80
2023-04-15T11:28:12.538Z,16.00
2023-04-15T11:30:40.552Z,16.20
2023-04-15T11:33:09.350Z,16.20
2023-04-15T11:35:36.783Z,15.90
2023-04-15T11:38:16.772Z,15.70
2023-04-15T11:43:14.140Z,14.80
2023-04-15T11:45:54.487Z,14.40
2023-04-15T11:48:24.073Z,14.50
2023-04-15T11:50:59.307Z,14.40
2023-04-15T11:53:37.492Z,14.50
2023-04-15T11:56:04.781Z,14.30
2023-04-15T11:58:31.810Z,14.40
2023-04-15T12:01:00.116Z,14.30
2023-04-15T12:03:30.256Z,14.40
2023-04-15T12:06:08.768Z,14.80
2023-04-15T12:09:01.913Z,14.60
2023-04-15T12:11:37.924Z,14.60
2023-04-15T12:14:05.207Z,14.70
2023-04-15T12:16:48.670Z,14.40
2023-04-15T12:19:22.805Z,14.60
2023-04-15T12:21:50.205Z,14.80
2023-04-15T12:24:22.935Z,15.00
2023-04-15T12:26:53.287Z,15.20
2023-04-15T12:29:24.986Z,15.10
2023-04-15T12:31:54.601Z,15.10
2023-04-15T12:34:51.459Z,15.10
2023-04-15T12:37:19.615Z,15.20
2023-04-15T12:39:48.962Z,15.20
2023-04-15T12:42:17.607Z,15.10
2023-04-15T12:44:44.568Z,15.80
2023-04-15T12:47:12.437Z,16.20
2023-04-15T12:49:39.864Z,16.20
2023-04-15T12:52:07.017Z,16.20
2023-04-15T12:54:34.633Z,16.50
2023-04-15T12:57:02.878Z,16.40
2023-04-15T12:59:30.825Z,16.30
2023-04-15T13:01:58.514Z,16.10
2023-04-15T13:04:25.717Z,15.70
2023-04-15T13:06:52.596Z,15.50
2023-04-15T13:09:19.457Z,15.30
2023-04-15T13:14:13.592Z,15.50
2023-04-15T13:16:40.962Z,15.50
2023-04-15T13:19:08.017Z,15.40
2023-04-15T13:21:36.220Z,15.30
2023-04-15T13:24:04.836Z,15.20
2023-04-15T13:26:32.177Z,14.90
2023-04-15T13:28:59.529Z,14.90
2023-04-15T13:31:27.250Z,14.50
2023-04-15T13:33:54.215Z,14.60
2023-04-15T13:38:50.990Z,14.50
2023-04-15T13:41:18.662Z,14.40
2023-04-15T13:46:13.227Z,14.60
2023-04-15T13:48:40.329Z,14.50
2023-04-15T13:51:07.161Z,14.30
2023-04-15T13:53:38.089Z,14.20
2023-04-15T13:56:08.982Z,14.10
2023-04-15T13:58:37.235Z,14.00
2023-04-15T14:01:05.707Z,14.60
2023-04-15T14:06:01.324Z,14.70
2023-04-15T14:08:28.212Z,15.00
2023-04-15T14:13:22.548Z,14.80
2023-04-15T14:15:49.396Z,14.60
2023-04-15T14:18:16.350Z,14.40
2023-04-15T14:20:43.184Z,13.90
2023-04-15T14:25:39.313Z,13.90
2023-04-15T14:28:06.350Z,14.10
2023-04-15T14:33:00.659Z,14.60
2023-04-15T14:35:28.075Z,14.60
2023-04-15T14:37:55.777Z,14.80
2023-04-15T14:40:22.910Z,14.60
2023-04-15T14:42:49.953Z,14.80
2023-04-15T14:45:17.645Z,14.70
2023-04-15T14:47:44.776Z,14.50
2023-04-15T14:50:12.125Z,14.50
2023-04-15T14:52:39.195Z,14.30
2023-04-15T14:55:08.225Z,14.10
2023-04-15T15:00:04.317Z,14.10
2023-04-15T15:05:07.713Z,13.80
2023-04-15T15:07:36.115Z,13.70
2023-04-15T15:10:03.296Z,13.60
2023-04-15T15:12:30.240Z,13.30
2023-04-15T15:19:51.882Z,12.60
2023-04-15T15:24:48.448Z,12.70
2023-04-15T15:27:15.358Z,12.50
2023-04-15T15:32:09.479Z,12.30
2023-04-15T15:34:36.290Z,12.20
2023-04-15T15:37:03.240Z,12.20
2023-04-15T15:44:24.681Z,11.90
2023-04-15T15:46:51.618Z,11.80
2023-04-15T15:49:19.772Z,11.80
2023-04-15T15:56:42.252Z,11.70
2023-04-15T15:59:09.180Z,11.70
2023-04-15T16:04:03.509Z,11.60
2023-04-15T16:06:32.754Z,11.50
2023-04-15T16:09:01.795Z,11.30
2023-04-15T16:11:29.732Z,11.20
2023-04-15T16:18:51.902Z,10.90
2023-04-15T16:21:20.927Z,11.00
2023-04-15T16:23:48.107Z,11.00
2023-04-15T16:26:15.024Z,10.90
2023-04-15T16:31:11.898Z,10.90
2023-04-15T16:33:39.143Z,10.80
2023-04-15T16:41:01.609Z,10.70
2023-04-15T16:43:29.283Z,10.60
2023-04-15T16:45:56.527Z,10.60
2023-04-15T16:48:23.422Z,10.60
2023-04-15T16:53:17.739Z,10.50
2023-04-15T16:55:44.642Z,10.50
2023-04-15T16:58:11.775Z,10.40
2023-04-15T17:05:34.200Z,10.40
2023-04-15T17:12:57.338Z,10.40
2023-04-15T17:17:51.969Z,10.30
2023-04-15T17:22:46.676Z,10.20
2023-04-15T17:25:14.909Z,10.20
2023-04-15T17:27:42.592Z,10.40
2023-04-15T17:30:09.965Z,10.20
2023-04-15T17:32:37.291Z,10.20
2023-04-15T17:40:01.667Z,10.20
2023-04-15T17:42:28.771Z,10.20
2023-04-15T17:47:23.064Z,10.20
2023-04-15T17:52:17.674Z,10.10
2023-04-15T17:54:46.166Z,10.10
2023-04-15T17:57:13.009Z,10.00
2023-04-15T17:59:44.006Z,9.90
2023-04-15T18:04:39.621Z,10.00
2023-04-15T18:07:06.894Z,9.90
2023-04-15T18:09:34.084Z,9.90
2023-04-15T18:14:34.653Z,9.90
2023-04-15T18:17:05.385Z,9.80
2023-04-15T18:19:32.315Z,9.80
2023-04-15T18:22:02.150Z,9.70
2023-04-15T18:24:29.084Z,9.80
2023-04-15T18:31:51.932Z,9.80
2023-04-15T18:34:18.742Z,9.70
2023-04-15T18:36:46.313Z,9.80
2023-04-15T18:39:13.206Z,9.80
2023-04-15T18:41:40.032Z,9.80
2023-04-15T18:44:06.831Z,9.70
2023-04-15T18:46:34.403Z,9.80
2023-04-15T18:49:01.542Z,9.80
2023-04-15T18:51:28.371Z,9.70
2023-04-15T18:53:55.297Z,9.80
2023-04-15T18:59:25.447Z,9.80
2023-04-15T19:01:36.814Z,9.80
2023-04-15T19:08:59.009Z,9.80
2023-04-15T19:11:26.520Z,9.80
2023-04-15T19:13:53.838Z,9.70
2023-04-15T19:18:48.237Z,9.70
2023-04-15T19:21:15.549Z,9.70
2023-04-15T19:23:45.755Z,9.60
2023-04-15T19:26:12.609Z,9.60
2023-04-15T19:28:39.595Z,9.60
2023-04-15T19:33:34.593Z,9.70
2023-04-15T19:36:04.169Z,9.70
2023-04-15T19:38:32.078Z,9.70
2023-04-15T19:40:59.367Z,9.70
2023-04-15T19:43:26.356Z,9.60
2023-04-15T19:48:23.192Z,9.80
2023-04-15T19:50:50.206Z,9.70
2023-04-15T19:55:45.817Z,9.80
2023-04-15T20:00:40.134Z,9.80
2023-04-15T20:03:07.097Z,9.80
2023-04-15T20:08:03.659Z,9.70
2023-04-15T20:10:31.730Z,9.70
2023-04-15T20:17:53.593Z,9.60
2023-04-15T20:20:20.968Z,9.60
2023-04-15T20:22:48.338Z,9.60
2023-04-15T20:25:15.272Z,9.60
2023-04-15T20:27:42.114Z,9.60
2023-04-15T20:32:36.735Z,9.60
2023-04-15T20:35:07.291Z,9.70
2023-04-15T20:40:02.406Z,9.70
2023-04-15T20:42:34.511Z,9.70
2023-04-15T20:45:02.275Z,9.60
2023-04-15T20:47:29.507Z,9.50
2023-04-15T20:49:56.652Z,9.50
2023-04-15T20:52:23.542Z,9.70
2023-04-15T20:54:51.351Z,9.50
2023-04-15T20:57:20.314Z,9.50
2023-04-15T20:59:47.699Z,9.70
2023-04-15T21:02:14.995Z,9.70
2023-04-15T21:04:41.976Z,9.60
2023-04-15T21:07:09.437Z,9.50
2023-04-15T21:09:36.274Z,9.60
2023-04-15T21:14:30.591Z,9.40
2023-04-15T21:17:08.472Z,9.40
2023-04-15T21:19:37.797Z,9.40
2023-04-15T21:24:33.018Z,9.50
2023-04-15T21:29:29.083Z,9.50
2023-04-15T21:31:56.004Z,9.40
2023-04-15T21:44:14.436Z,9.50
2023-04-15T21:51:40.324Z,9.40
2023-04-15T21:54:07.190Z,9.40
2023-04-15T21:59:01.490Z,9.40
2023-04-15T22:01:28.466Z,9.40
2023-04-15T22:06:23.319Z,9.40
2023-04-15T22:09:11.358Z,9.50
2023-04-15T22:11:37.363Z,9.40
2023-04-15T22:18:59.959Z,9.50
2023-04-15T22:29:08.939Z,9.40
2023-04-15T22:31:35.975Z,9.30
2023-04-15T22:34:02.966Z,9.30
2023-04-15T22:36:31.412Z,9.20
2023-04-15T22:38:58.213Z,9.10
2023-04-15T22:41:25.291Z,9.10
2023-04-15T22:43:52.066Z,9.10
2023-04-15T22:51:13.363Z,9.20
2023-04-15T22:58:34.882Z,9.20
2023-04-15T23:05:56.573Z,9.20
2023-04-15T23:08:24.035Z,9.20
2023-04-15T23:10:51.300Z,9.20
2023-04-15T23:15:45.535Z,9.10
2023-04-15T23:18:12.453Z,9.10
2023-04-15T23:20:39.773Z,9.10
2023-04-15T23:23:06.598Z,9.00
2023-04-15T23:25:33.436Z,9.00
2023-04-15T23:28:00.330Z,9.00
2023-04-15T23:30:27.128Z,9.00
2023-04-15T23:32:53.974Z,9.00
2023-04-15T23:37:48.047Z,8.90
2023-04-15T23:40:15.729Z,8.80
2023-04-15T23:42:42.647Z,8.80
2023-04-15T23:45:10.386Z,8.80
2023-04-15T23:47:37.612Z,8.80
2023-04-15T23:50:05.033Z,8.70
2023-04-15T23:52:31.871Z,8.70
2023-04-15T23:54:58.919Z,8.70
2023-04-15T23:57:26.245Z,8.60
2023-04-15T23:59:53.657Z,8.60
